Time;durP1;ratioP1;P1;durP2;ratioP2;P2;SDS_P1;SDS_P2;PMS_P1;PMS_P2;Temp;Humidity;BMP_temperature;BMP_pressure;BME280_temperature;BME280_humidity;BME280_pressure;Samples;Min_cycle;Max_cycle;Signal;HPM_P1;HPM_P2
2022/01/17 00:01:46;;;;;;;;;;;5.00;1.00;;;;;;5015331;28;19913;-78
2022/01/17 00:04:11;;;;;;;;;;;5.00;1.00;;;;;;5020857;28;19921;-79
2022/01/17 00:06:37;;;;;;;;;;;5.00;1.00;;;;;;5015353;28;19920;-78
2022/01/17 00:09:03;;;;;;;;;;;5.00;1.00;;;;;;5029344;28;19920;-78
2022/01/17 00:11:28;;;;;;;;;;;5.00;1.00;;;;;;5037452;28;19921;-78
2022/01/17 00:13:55;;;;;;;;;;;5.00;1.00;;;;;;5013926;28;19980;-78
2022/01/17 00:16:28;;;;;;;;;;;5.00;1.00;;;;;;5015986;28;19928;-78
2022/01/17 00:19:55;;;;;;;;;;;5.00;1.00;;;;;;5018957;28;19935;-79
2022/01/17 00:21:49;;;;;;;;;;;5.00;1.00;;;;;;5006799;28;19948;-79
2022/01/17 00:24:14;;;;;;;;;;;5.00;1.00;;;;;;5038051;28;20408;-79
2022/01/17 00:26:40;;;;;;;;;;;5.00;1.00;;;;;;5032411;28;19921;-79
2022/01/17 00:29:05;;;;;;;;;;;5.00;1.00;;;;;;5015315;28;19920;-78
2022/01/17 00:31:31;;;;;;;;;;;5.10;1.00;;;;;;5012505;28;19917;-78
2022/01/17 00:33:56;;;;;;;;;;;5.10;1.00;;;;;;5016717;28;19925;-77
2022/01/17 00:36:22;;;;;;;;;;;5.10;1.00;;;;;;5030841;28;20000;-78
2022/01/17 00:38:47;;;;;;;;;;;5.10;1.00;;;;;;5020861;28;19921;-78
2022/01/17 00:41:13;;;;;;;;;;;5.10;1.00;;;;;;5017761;28;19917;-77
2022/01/17 00:43:38;;;;;;;;;;;5.10;1.00;;;;;;5019239;28;20357;-77
2022/01/17 00:46:04;;;;;;;;;;;5.20;1.00;;;;;;5015212;28;19914;-78
2022/01/17 00:48:29;;;;;;;;;;;5.20;1.00;;;;;;5015785;28;19917;-77
2022/01/17 00:50:54;;;;;;;;;;;5.20;1.00;;;;;;5045660;28;19913;-78
2022/01/17 00:53:20;;;;;;;;;;;5.20;1.00;;;;;;5014874;28;20015;-77
2022/01/17 00:55:45;;;;;;;;;;;5.30;1.00;;;;;;5029593;28;20431;-77
2022/01/17 00:58:11;;;;;;;;;;;5.30;1.00;;;;;;5014759;28;19914;-78
2022/01/17 01:00:37;;;;;;;;;;;5.20;1.00;;;;;;5015508;28;19948;-78
2022/01/17 01:03:02;;;;;;;;;;;5.30;1.00;;;;;;5029910;28;19963;-77
2022/01/17 01:05:28;;;;;;;;;;;5.30;1.00;;;;;;5019560;28;19914;-77
2022/01/17 01:07:56;;;;;;;;;;;5.30;1.00;;;;;;5014676;28;19917;-77
2022/01/17 01:10:21;;;;;;;;;;;5.20;1.00;;;;;;5015944;28;20008;-78
2022/01/17 01:12:48;;;;;;;;;;;5.20;1.00;;;;;;5014309;28;20142;-78
2022/01/17 01:15:19;;;;;;;;;;;5.30;1.00;;;;;;5034384;28;19964;-78
2022/01/17 01:17:53;;;;;;;;;;;5.30;1.00;;;;;;5014467;28;20004;-78
2022/01/17 01:28:30;;;;;;;;;;;5.30;1.00;;;;;;5014886;28;19920;-78
2022/01/17 01:30:58;;;;;;;;;;;5.30;1.00;;;;;;5012940;28;19910;-78
2022/01/17 01:33:28;;;;;;;;;;;5.30;1.00;;;;;;5021988;28;19936;-79
2022/01/17 01:36:07;;;;;;;;;;;5.30;1.00;;;;;;5022463;28;19921;-78
2022/01/17 01:38:33;;;;;;;;;;;5.30;1.00;;;;;;5021827;28;19914;-79
2022/01/17 01:40:58;;;;;;;;;;;5.30;1.00;;;;;;5014252;28;19909;-78
2022/01/17 01:43:24;;;;;;;;;;;5.30;1.00;;;;;;5016126;28;20362;-78
2022/01/17 01:45:50;;;;;;;;;;;5.30;1.00;;;;;;5013820;28;19917;-78
2022/01/17 01:48:19;;;;;;;;;;;5.30;1.00;;;;;;5016749;28;20954;-78
2022/01/17 01:50:45;;;;;;;;;;;5.40;1.00;;;;;;5027635;28;19914;-78
2022/01/17 01:53:10;;;;;;;;;;;5.30;1.00;;;;;;5013771;28;19920;-79
2022/01/17 01:55:36;;;;;;;;;;;5.30;1.00;;;;;;5013115;28;19917;-78
2022/01/17 01:58:02;;;;;;;;;;;5.40;1.00;;;;;;5013842;28;19909;-78
2022/01/17 02:00:27;;;;;;;;;;;5.40;1.00;;;;;;5015612;28;20004;-78
2022/01/17 02:02:52;;;;;;;;;;;5.40;1.00;;;;;;5013469;28;19914;-78
2022/01/17 02:05:18;;;;;;;;;;;5.40;1.00;;;;;;5017263;28;20009;-77
2022/01/17 02:07:44;;;;;;;;;;;5.40;1.00;;;;;;5015542;28;20009;-78
2022/01/17 02:10:10;;;;;;;;;;;5.40;1.00;;;;;;5017221;28;19924;-78
2022/01/17 02:12:36;;;;;;;;;;;5.40;1.00;;;;;;5015156;28;19917;-79
2022/01/17 02:15:01;;;;;;;;;;;5.40;1.00;;;;;;5013656;28;19960;-78
2022/01/17 02:17:27;;;;;;;;;;;5.40;1.00;;;;;;5020717;28;19944;-78
2022/01/17 02:19:54;;;;;;;;;;;5.40;1.00;;;;;;5015234;28;19913;-78
2022/01/17 02:22:19;;;;;;;;;;;5.40;1.00;;;;;;5012589;28;19918;-77
2022/01/17 02:24:44;;;;;;;;;;;5.40;1.00;;;;;;5014359;28;19925;-79
2022/01/17 02:27:10;;;;;;;;;;;5.40;1.00;;;;;;5015510;28;19921;-78
2022/01/17 02:29:35;;;;;;;;;;;5.40;1.00;;;;;;5012707;28;19917;-78
2022/01/17 02:32:01;;;;;;;;;;;5.40;1.00;;;;;;5016853;28;19920;-78
2022/01/17 02:34:26;;;;;;;;;;;5.50;1.00;;;;;;5030694;28;19913;-78
2022/01/17 02:36:52;;;;;;;;;;;5.50;1.00;;;;;;5016021;28;20275;-78
2022/01/17 02:39:17;;;;;;;;;;;5.50;1.00;;;;;;5013199;28;19952;-79
2022/01/17 02:41:46;;;;;;;;;;;5.50;1.00;;;;;;5026147;28;19917;-77
2022/01/17 02:44:11;;;;;;;;;;;5.50;1.00;;;;;;5013488;28;19953;-77
2022/01/17 02:46:37;;;;;;;;;;;5.50;1.00;;;;;;5018337;28;19920;-78
2022/01/17 02:49:03;;;;;;;;;;;5.50;1.00;;;;;;5013248;28;19917;-78
2022/01/17 02:51:29;;;;;;;;;;;5.50;1.00;;;;;;5013303;28;19914;-78
2022/01/17 02:53:55;;;;;;;;;;;5.50;1.00;;;;;;5027497;28;19926;-78
2022/01/17 02:56:21;;;;;;;;;;;5.50;1.00;;;;;;5013108;28;20074;-78
2022/01/17 02:58:46;;;;;;;;;;;5.50;1.00;;;;;;5013266;28;19913;-79
2022/01/17 03:01:14;;;;;;;;;;;5.50;1.00;;;;;;5012931;28;19921;-78
2022/01/17 03:03:43;;;;;;;;;;;5.50;1.00;;;;;;5028655;28;19987;-79
2022/01/17 03:06:09;;;;;;;;;;;5.50;1.00;;;;;;5012912;28;20349;-78
2022/01/17 03:08:35;;;;;;;;;;;5.50;1.00;;;;;;5019809;28;20615;-77
2022/01/17 03:11:05;;;;;;;;;;;5.50;1.00;;;;;;5031595;28;19945;-78
2022/01/17 03:13:32;;;;;;;;;;;5.50;1.00;;;;;;5012638;28;19920;-79
2022/01/17 03:16:00;;;;;;;;;;;5.50;1.00;;;;;;5013282;28;20279;-79
2022/01/17 03:18:30;;;;;;;;;;;5.50;1.00;;;;;;5012959;28;19920;-78
2022/01/17 03:20:56;;;;;;;;;;;5.50;1.00;;;;;;5028868;28;19920;-78
2022/01/17 03:23:21;;;;;;;;;;;5.50;1.00;;;;;;5015856;28;19917;-78
2022/01/17 03:25:47;;;;;;;;;;;5.60;1.00;;;;;;5014220;28;19924;-78
2022/01/17 03:28:13;;;;;;;;;;;5.60;1.00;;;;;;5013966;28;20009;-78
2022/01/17 03:30:38;;;;;;;;;;;5.60;1.00;;;;;;5008180;28;20008;-78
2022/01/17 03:33:05;;;;;;;;;;;5.60;1.00;;;;;;5012768;28;19949;-78
2022/01/17 03:35:31;;;;;;;;;;;5.60;1.00;;;;;;5013234;28;19960;-78
2022/01/17 03:37:56;;;;;;;;;;;5.60;1.00;;;;;;5025213;28;19917;-78
2022/01/17 03:40:22;;;;;;;;;;;5.60;1.00;;;;;;5016667;28;19914;-78
2022/01/17 03:42:47;;;;;;;;;;;5.60;1.00;;;;;;5013778;28;19960;-78
2022/01/17 03:45:13;;;;;;;;;;;5.60;1.00;;;;;;5023496;28;19913;-79
2022/01/17 03:47:40;;;;;;;;;;;5.60;1.00;;;;;;5023681;28;19914;-79
2022/01/17 03:50:07;;;;;;;;;;;5.60;1.00;;;;;;5021508;28;19913;-79
2022/01/17 03:52:33;;;;;;;;;;;5.60;1.00;;;;;;5054308;28;19944;-79
2022/01/17 03:54:59;;;;;;;;;;;5.60;1.00;;;;;;5018389;28;20632;-79
2022/01/17 03:57:25;;;;;;;;;;;5.50;1.00;;;;;;5017739;28;19952;-79
2022/01/17 03:59:50;;;;;;;;;;;5.50;1.00;;;;;;5012837;28;19913;-79
2022/01/17 04:02:16;;;;;;;;;;;5.50;1.00;;;;;;5015059;28;19914;-78
2022/01/17 04:04:41;;;;;;;;;;;5.50;1.00;;;;;;5015789;28;19921;-79
2022/01/17 04:07:07;;;;;;;;;;;5.50;1.00;;;;;;5015476;28;19910;-79
2022/01/17 04:09:32;;;;;;;;;;;5.60;1.00;;;;;;5022687;28;19917;-79
2022/01/17 04:11:58;;;;;;;;;;;5.50;1.00;;;;;;5031131;28;19948;-79
2022/01/17 04:14:23;;;;;;;;;;;5.50;1.00;;;;;;5031190;28;19921;-78
2022/01/17 04:16:49;;;;;;;;;;;5.50;1.00;;;;;;5033457;28;19944;-79
2022/01/17 04:19:16;;;;;;;;;;;5.50;1.00;;;;;;5015067;28;19967;-79
2022/01/17 04:21:42;;;;;;;;;;;5.50;1.00;;;;;;5046998;28;19913;-79
2022/01/17 04:24:07;;;;;;;;;;;5.40;1.00;;;;;;5016524;28;20378;-79
2022/01/17 04:26:33;;;;;;;;;;;5.40;1.00;;;;;;5016046;28;19914;-78
2022/01/17 04:28:58;;;;;;;;;;;5.40;1.00;;;;;;5032215;28;19920;-78
2022/01/17 04:31:23;;;;;;;;;;;5.40;1.00;;;;;;5015635;28;19913;-78
2022/01/17 04:33:49;;;;;;;;;;;5.50;1.00;;;;;;5018291;28;19925;-79
2022/01/17 04:36:14;;;;;;;;;;;5.50;1.00;;;;;;5015264;28;20301;-78
2022/01/17 04:38:40;;;;;;;;;;;5.50;1.00;;;;;;5046173;28;19913;-78
2022/01/17 04:41:13;;;;;;;;;;;5.50;1.00;;;;;;5015256;28;19916;-79
2022/01/17 04:46:05;;;;;;;;;;;5.40;1.00;;;;;;5015191;28;20365;-79
2022/01/17 04:48:31;;;;;;;;;;;5.40;1.00;;;;;;5023425;28;19943;-79
2022/01/17 04:50:58;;;;;;;;;;;5.40;1.00;;;;;;5023404;28;19941;-78
2022/01/17 04:53:25;;;;;;;;;;;5.40;1.00;;;;;;5018185;28;19913;-78
2022/01/17 04:55:50;;;;;;;;;;;5.50;1.00;;;;;;5013464;28;19917;-78
2022/01/17 04:58:16;;;;;;;;;;;5.50;1.00;;;;;;5017647;28;20402;-78
2022/01/17 05:00:48;;;;;;;;;;;5.50;1.00;;;;;;5014570;28;19923;-79
2022/01/17 05:03:14;;;;;;;;;;;5.50;1.00;;;;;;5016633;28;19914;-79
2022/01/17 05:05:40;;;;;;;;;;;5.60;1.00;;;;;;5013202;28;20408;-79
2022/01/17 05:08:05;;;;;;;;;;;5.60;1.00;;;;;;5014535;28;19913;-78
2022/01/17 05:10:31;;;;;;;;;;;5.60;1.00;;;;;;5017372;28;20015;-78
2022/01/17 05:12:56;;;;;;;;;;;5.60;1.00;;;;;;5014334;28;19960;-78
2022/01/17 05:20:31;;;;;;;;;;;5.60;1.00;;;;;;5014064;28;19960;-78
2022/01/17 05:22:57;;;;;;;;;;;5.60;1.00;;;;;;5013982;28;19914;-78
2022/01/17 05:25:22;;;;;;;;;;;5.60;1.00;;;;;;5006463;28;19918;-79
2022/01/17 05:27:48;;;;;;;;;;;5.60;1.00;;;;;;5017093;28;19967;-78
2022/01/17 05:30:15;;;;;;;;;;;5.60;1.00;;;;;;5010772;28;19941;-78
2022/01/17 05:32:41;;;;;;;;;;;5.60;1.00;;;;;;5014159;28;19913;-79
2022/01/17 05:35:07;;;;;;;;;;;5.60;1.00;;;;;;5014874;28;20291;-78
2022/01/17 05:37:33;;;;;;;;;;;5.60;1.00;;;;;;5028408;28;19920;-79
2022/01/17 05:39:59;;;;;;;;;;;5.60;1.00;;;;;;5015794;28;19913;-78
2022/01/17 05:42:24;;;;;;;;;;;5.70;1.00;;;;;;5013725;28;19928;-78
2022/01/17 05:44:51;;;;;;;;;;;5.70;1.00;;;;;;5012755;28;20000;-78
2022/01/17 05:47:16;;;;;;;;;;;5.70;1.00;;;;;;5014006;28;19909;-78
2022/01/17 05:49:42;;;;;;;;;;;5.70;1.00;;;;;;5013112;28;19916;-79
2022/01/17 05:52:08;;;;;;;;;;;5.70;1.00;;;;;;5014301;28;19913;-78
2022/01/17 05:54:34;;;;;;;;;;;5.70;1.00;;;;;;5019346;28;19910;-77
2022/01/17 05:56:59;;;;;;;;;;;5.70;1.00;;;;;;5013738;28;19928;-77
2022/01/17 05:59:25;;;;;;;;;;;5.70;1.00;;;;;;5019383;28;19993;-77
2022/01/17 06:01:50;;;;;;;;;;;5.70;1.00;;;;;;5012327;28;20439;-78
2022/01/17 06:04:16;;;;;;;;;;;5.70;1.00;;;;;;5013748;28;19913;-79
2022/01/17 06:06:41;;;;;;;;;;;5.70;1.00;;;;;;5013365;28;20401;-79
2022/01/17 06:09:07;;;;;;;;;;;5.70;1.00;;;;;;5013674;28;19914;-78
2022/01/17 06:11:35;;;;;;;;;;;5.70;1.00;;;;;;5018422;28;19955;-78
2022/01/17 06:14:01;;;;;;;;;;;5.60;1.00;;;;;;5029349;28;19968;-77
2022/01/17 06:16:26;;;;;;;;;;;5.60;1.00;;;;;;5017400;28;19967;-77
2022/01/17 06:18:52;;;;;;;;;;;5.60;1.00;;;;;;5017037;28;19916;-78
2022/01/17 06:21:17;;;;;;;;;;;5.60;1.00;;;;;;5015663;28;20579;-77
2022/01/17 06:23:42;;;;;;;;;;;5.60;1.00;;;;;;5016082;28;19957;-78
2022/01/17 06:26:08;;;;;;;;;;;5.50;1.00;;;;;;5029120;28;19918;-78
2022/01/17 06:28:34;;;;;;;;;;;5.60;1.00;;;;;;5028090;28;20580;-77
2022/01/17 06:30:59;;;;;;;;;;;5.60;1.00;;;;;;5017696;28;20011;-77
2022/01/17 06:33:25;;;;;;;;;;;5.60;1.00;;;;;;5016524;28;19921;-77
2022/01/17 06:35:50;;;;;;;;;;;5.60;1.00;;;;;;5016460;28;19982;-78
2022/01/17 06:38:16;;;;;;;;;;;5.60;1.00;;;;;;5028860;28;19924;-77
2022/01/17 06:40:41;;;;;;;;;;;5.60;1.00;;;;;;5016111;28;20288;-77
2022/01/17 06:43:08;;;;;;;;;;;5.60;1.00;;;;;;5012549;28;20008;-76
2022/01/17 06:45:34;;;;;;;;;;;5.60;1.00;;;;;;5012454;28;19939;-77
2022/01/17 06:48:00;;;;;;;;;;;5.60;1.00;;;;;;5013236;28;19909;-78
2022/01/17 06:50:26;;;;;;;;;;;5.70;1.00;;;;;;5043472;28;19920;-78
2022/01/17 06:52:52;;;;;;;;;;;5.60;1.00;;;;;;5012980;28;20289;-79
2022/01/17 06:55:17;;;;;;;;;;;5.70;1.00;;;;;;5020132;28;19921;-78
2022/01/17 06:57:43;;;;;;;;;;;5.70;1.00;;;;;;5047302;28;19914;-79
2022/01/17 07:00:09;;;;;;;;;;;5.70;1.00;;;;;;5028532;28;19914;-80
2022/01/17 07:02:34;;;;;;;;;;;5.70;1.00;;;;;;5034776;28;19913;-80
2022/01/17 07:05:00;;;;;;;;;;;5.70;1.00;;;;;;5034329;28;19967;-81
2022/01/17 07:07:25;;;;;;;;;;;5.80;1.00;;;;;;5027656;28;19914;-82
2022/01/17 07:09:51;;;;;;;;;;;5.90;1.00;;;;;;5045437;28;19914;-81
2022/01/17 07:12:16;;;;;;;;;;;6.00;1.00;;;;;;5033263;28;19910;-81
2022/01/17 07:14:42;;;;;;;;;;;6.00;1.00;;;;;;5046169;28;19914;-82
2022/01/17 07:17:10;;;;;;;;;;;6.10;1.00;;;;;;5050976;28;19913;-81
2022/01/17 07:19:36;;;;;;;;;;;6.10;1.00;;;;;;5050574;28;19924;-81
2022/01/17 07:22:02;;;;;;;;;;;6.10;1.00;;;;;;5034474;28;19969;-81
2022/01/17 07:24:28;;;;;;;;;;;6.10;1.00;;;;;;5058523;28;19918;-81
2022/01/17 07:26:53;;;;;;;;;;;6.10;1.00;;;;;;5023902;28;19970;-77
2022/01/17 07:29:19;;;;;;;;;;;6.10;1.00;;;;;;5018668;28;19916;-78
2022/01/17 07:31:44;;;;;;;;;;;6.10;1.00;;;;;;5017607;28;19921;-77
2022/01/17 07:34:11;;;;;;;;;;;6.00;1.00;;;;;;5037052;28;20382;-77
2022/01/17 07:36:36;;;;;;;;;;;6.00;1.00;;;;;;5038793;28;19925;-78
2022/01/17 07:39:02;;;;;;;;;;;6.00;1.00;;;;;;5026016;28;19914;-77
2022/01/17 07:41:28;;;;;;;;;;;6.00;1.00;;;;;;5018143;28;19910;-77
2022/01/17 07:43:53;;;;;;;;;;;6.00;1.00;;;;;;5019676;28;19918;-77
2022/01/17 07:46:33;;;;;;;;;;;6.00;1.00;;;;;;5023309;28;19937;-77
2022/01/17 07:49:19;;;;;;;;;;;6.10;1.00;;;;;;5011324;28;20008;-77
2022/01/17 07:51:45;;;;;;;;;;;6.00;1.00;;;;;;5010992;28;19993;-77
2022/01/17 07:54:14;;;;;;;;;;;6.10;1.00;;;;;;5024171;28;20358;-77
2022/01/17 07:56:40;;;;;;;;;;;6.10;1.00;;;;;;5009827;28;20904;-77
2022/01/17 07:59:09;;;;;;;;;;;6.10;1.00;;;;;;5028918;28;19969;-77
2022/01/17 08:01:36;;;;;;;;;;;6.10;1.00;;;;;;5030195;28;19913;-77
2022/01/17 08:04:02;;;;;;;;;;;6.20;1.00;;;;;;5025892;28;19917;-78
2022/01/17 08:06:27;;;;;;;;;;;6.20;1.00;;;;;;5020501;28;19966;-78
2022/01/17 08:08:55;;;;;;;;;;;6.20;1.00;;;;;;5022870;28;20266;-78
2022/01/17 08:11:20;;;;;;;;;;;6.20;1.00;;;;;;5058662;28;20009;-81
2022/01/17 08:13:46;;;;;;;;;;;6.20;1.00;;;;;;5029405;28;19913;-80
2022/01/17 08:16:11;;;;;;;;;;;6.10;1.00;;;;;;5043678;28;19993;-81
2022/01/17 08:18:37;;;;;;;;;;;6.10;1.00;;;;;;5042716;28;19913;-79
2022/01/17 08:21:05;;;;;;;;;;;6.10;1.00;;;;;;5045954;28;19913;-80
2022/01/17 08:23:31;;;;;;;;;;;6.10;1.00;;;;;;5049794;28;19913;-81
2022/01/17 08:25:56;;;;;;;;;;;6.00;1.00;;;;;;5035907;28;19967;-81
2022/01/17 08:28:22;;;;;;;;;;;6.00;1.00;;;;;;5044015;28;19919;-81
2022/01/17 08:30:47;;;;;;;;;;;6.00;1.00;;;;;;5062752;28;19917;-81
2022/01/17 08:33:13;;;;;;;;;;;6.00;1.00;;;;;;5045503;28;19917;-81
2022/01/17 08:35:38;;;;;;;;;;;6.00;1.00;;;;;;5062692;28;19917;-81
2022/01/17 08:38:04;;;;;;;;;;;6.00;1.00;;;;;;5035561;28;19913;-80
2022/01/17 08:40:29;;;;;;;;;;;6.10;1.00;;;;;;5051798;28;19913;-81
2022/01/17 08:42:55;;;;;;;;;;;6.10;1.00;;;;;;5056242;28;19913;-81
2022/01/17 08:45:23;;;;;;;;;;;6.20;1.00;;;;;;5033206;28;19920;-81
2022/01/17 08:47:49;;;;;;;;;;;6.20;1.00;;;;;;5049066;28;19973;-81
2022/01/17 08:50:16;;;;;;;;;;;6.30;1.00;;;;;;5054856;28;19940;-81
2022/01/17 08:52:43;;;;;;;;;;;6.30;1.00;;;;;;5046189;28;19931;-81
2022/01/17 08:55:09;;;;;;;;;;;6.40;1.00;;;;;;5057290;28;19939;-81
2022/01/17 08:57:34;;;;;;;;;;;6.40;1.00;;;;;;5066846;28;19913;-81
2022/01/17 08:59:59;;;;;;;;;;;6.50;1.00;;;;;;5034666;28;19924;-81
2022/01/17 09:02:25;;;;;;;;;;;6.50;1.00;;;;;;5028635;28;19989;-81
2022/01/17 09:04:50;;;;;;;;;;;6.50;1.00;;;;;;5059989;28;19909;-81
2022/01/17 09:07:16;;;;;;;;;;;6.60;1.00;;;;;;5058581;28;19916;-81
2022/01/17 09:09:43;;;;;;;;;;;6.80;1.00;;;;;;5048810;28;19913;-81
2022/01/17 09:12:10;;;;;;;;;;;7.10;1.00;;;;;;5044822;28;19918;-81
2022/01/17 09:14:36;;;;;;;;;;;7.10;1.00;;;;;;5040928;28;19921;-81
2022/01/17 09:17:03;;;;;;;;;;;7.20;1.00;;;;;;5060406;28;19917;-81
2022/01/17 09:19:28;;;;;;;;;;;7.40;1.00;;;;;;5054669;28;20193;-81
2022/01/17 09:21:54;;;;;;;;;;;7.50;1.00;;;;;;5027035;28;19909;-82
2022/01/17 09:24:19;;;;;;;;;;;7.40;1.00;;;;;;5030943;28;19945;-81
2022/01/17 09:26:45;;;;;;;;;;;7.50;1.00;;;;;;5046462;28;19916;-82
2022/01/17 09:29:11;;;;;;;;;;;7.80;1.00;;;;;;5046950;28;19941;-82
2022/01/17 09:31:36;;;;;;;;;;;8.30;99.90;;;;;;5060611;28;19914;-82
2022/01/17 09:34:01;;;;;;;;;;;8.40;1.00;;;;;;5045809;28;20136;-82
2022/01/17 09:36:29;;;;;;;;;;;8.40;99.90;;;;;;5037494;28;19940;-81
2022/01/17 09:38:55;;;;;;;;;;;8.20;99.90;;;;;;5041042;28;19956;-81
2022/01/17 09:41:20;;;;;;;;;;;8.00;1.00;;;;;;5048872;28;20138;-81
2022/01/17 09:43:46;;;;;;;;;;;7.90;1.00;;;;;;5037890;28;20311;-81
2022/01/17 09:46:11;;;;;;;;;;;7.80;1.00;;;;;;5040126;28;19936;-82
2022/01/17 09:48:39;;;;;;;;;;;7.70;1.00;;;;;;5048980;28;20019;-81
2022/01/17 09:51:16;;;;;;;;;;;7.60;1.00;;;;;;5059184;28;19937;-81
2022/01/17 09:53:42;;;;;;;;;;;7.70;33.80;;;;;;5031258;28;19914;-81
2022/01/17 09:56:07;;;;;;;;;;;7.60;59.00;;;;;;5045478;28;19976;-81
2022/01/17 09:58:35;;;;;;;;;;;7.70;46.20;;;;;;5027926;28;19920;-80
2022/01/17 10:01:01;;;;;;;;;;;7.60;1.00;;;;;;5042848;28;19936;-81
2022/01/17 10:03:26;;;;;;;;;;;7.60;5.30;;;;;;5042420;28;20008;-81
2022/01/17 10:05:52;;;;;;;;;;;7.50;20.20;;;;;;5041020;28;19953;-81
2022/01/17 10:08:18;;;;;;;;;;;7.50;62.50;;;;;;5032834;28;19913;-81
2022/01/17 10:10:51;;;;;;;;;;;7.50;99.90;;;;;;5060758;28;19914;-81
2022/01/17 10:13:23;;;;;;;;;;;7.50;97.40;;;;;;5058465;28;19949;-80
2022/01/17 10:16:15;;;;;;;;;;;7.60;93.70;;;;;;5062326;28;19932;-81
2022/01/17 10:18:42;;;;;;;;;;;7.70;96.40;;;;;;5028177;28;19914;-81
2022/01/17 10:21:19;;;;;;;;;;;7.80;54.70;;;;;;5053251;28;19923;-81
2022/01/17 10:27:27;;;;;;;;;;;8.00;1.00;;;;;;5037105;28;20212;-81
2022/01/17 10:34:54;;;;;;;;;;;8.60;1.00;;;;;;5039469;28;20352;-81
2022/01/17 10:37:22;;;;;;;;;;;9.00;1.00;;;;;;5046985;28;19913;-81
2022/01/17 10:39:57;;;;;;;;;;;9.10;1.00;;;;;;5036370;28;19913;-81
2022/01/17 10:42:41;;;;;;;;;;;9.00;99.90;;;;;;5061069;28;20267;-81
2022/01/17 10:45:09;;;;;;;;;;;8.90;99.90;;;;;;5043048;28;20988;-81
2022/01/17 10:47:39;;;;;;;;;;;8.80;99.90;;;;;;5056307;28;19913;-81
2022/01/17 10:50:10;;;;;;;;;;;8.60;99.90;;;;;;5031700;28;19956;-81
2022/01/17 10:52:42;;;;;;;;;;;8.60;1.00;;;;;;5048955;28;19910;-81
2022/01/17 10:55:10;;;;;;;;;;;8.60;1.00;;;;;;5054437;28;19921;-81
2022/01/17 10:57:39;;;;;;;;;;;8.50;1.00;;;;;;5053422;28;19932;-81
2022/01/17 11:00:08;;;;;;;;;;;8.50;1.00;;;;;;5073607;28;19913;-81
2022/01/17 11:02:35;;;;;;;;;;;8.40;1.00;;;;;;5045219;28;19941;-81
2022/01/17 11:05:05;;;;;;;;;;;8.40;44.10;;;;;;5053712;28;19914;-82
2022/01/17 11:07:30;;;;;;;;;;;8.30;99.90;;;;;;5053434;28;19913;-81
2022/01/17 11:10:00;;;;;;;;;;;8.30;99.90;;;;;;5037804;28;19921;-81
2022/01/17 11:12:28;;;;;;;;;;;8.40;1.00;;;;;;5070849;28;19944;-82
2022/01/17 11:14:55;;;;;;;;;;;8.40;1.00;;;;;;5072817;28;19905;-82
2022/01/17 11:17:34;;;;;;;;;;;8.40;1.00;;;;;;5053333;28;19921;-82
2022/01/17 11:22:29;;;;;;;;;;;8.40;1.00;;;;;;5034188;28;19922;-81
2022/01/17 11:24:55;;;;;;;;;;;8.40;1.00;;;;;;5035027;28;20059;-81
2022/01/17 11:27:20;;;;;;;;;;;8.40;1.00;;;;;;5050672;28;19920;-81
2022/01/17 11:29:48;;;;;;;;;;;8.40;1.00;;;;;;5035189;28;19973;-81
2022/01/17 11:32:13;;;;;;;;;;;8.50;1.00;;;;;;5049185;28;19918;-81
2022/01/17 11:34:39;;;;;;;;;;;8.50;99.90;;;;;;5051553;28;19921;-82
2022/01/17 11:37:05;;;;;;;;;;;8.60;99.90;;;;;;5050296;28;19917;-81
2022/01/17 11:39:30;;;;;;;;;;;8.50;99.90;;;;;;5052380;28;19913;-81
2022/01/17 11:41:56;;;;;;;;;;;8.40;99.90;;;;;;5034386;28;19909;-80
2022/01/17 11:44:34;;;;;;;;;;;8.40;1.00;;;;;;5057769;28;19912;-81
2022/01/17 11:47:01;;;;;;;;;;;8.40;1.00;;;;;;5053191;28;19916;-81
2022/01/17 11:49:31;;;;;;;;;;;8.40;1.00;;;;;;5066988;28;19913;-81
2022/01/17 11:51:56;;;;;;;;;;;8.30;1.00;;;;;;5068488;28;19992;-82
2022/01/17 11:54:24;;;;;;;;;;;8.20;1.00;;;;;;5066651;28;19917;-81
2022/01/17 11:57:02;;;;;;;;;;;8.20;1.00;;;;;;5050796;28;19970;-81
2022/01/17 11:59:48;;;;;;;;;;;8.20;99.90;;;;;;5070995;28;19939;-81
2022/01/17 12:02:17;;;;;;;;;;;8.10;99.90;;;;;;5061890;28;19914;-81
2022/01/17 12:05:02;;;;;;;;;;;8.10;1.00;;;;;;5030662;28;19910;-81
2022/01/17 12:07:54;;;;;;;;;;;8.00;1.00;;;;;;5047232;28;19937;-81
2022/01/17 12:10:24;;;;;;;;;;;8.00;1.00;;;;;;5029426;28;19910;-81
2022/01/17 12:13:09;;;;;;;;;;;8.00;1.00;;;;;;5047173;28;19913;-81
2022/01/17 12:18:41;;;;;;;;;;;8.00;1.00;;;;;;4999123;28;19914;-82
2022/01/17 12:21:28;;;;;;;;;;;7.90;1.00;;;;;;4993384;28;19910;-81
2022/01/17 12:24:12;;;;;;;;;;;7.80;1.00;;;;;;5043311;28;19924;-81
2022/01/17 12:26:38;;;;;;;;;;;7.80;99.90;;;;;;5052963;28;19924;-81
2022/01/17 12:29:03;;;;;;;;;;;7.90;73.70;;;;;;5067818;28;19909;-81
2022/01/17 12:31:41;;;;;;;;;;;7.90;1.00;;;;;;5070265;28;19913;-82
2022/01/17 12:34:14;;;;;;;;;;;7.90;1.00;;;;;;5026470;28;19909;-81
2022/01/17 12:36:41;;;;;;;;;;;7.90;1.00;;;;;;5034594;28;19979;-82
2022/01/17 12:39:15;;;;;;;;;;;8.00;1.00;;;;;;5047673;28;19909;-81
2022/01/17 12:41:41;;;;;;;;;;;8.10;1.00;;;;;;5065437;28;19909;-82
2022/01/17 12:44:13;;;;;;;;;;;8.10;99.90;;;;;;5049669;28;19913;-81
2022/01/17 12:46:40;;;;;;;;;;;8.10;99.90;;;;;;5064724;28;20019;-81
2022/01/17 12:49:06;;;;;;;;;;;8.10;99.90;;;;;;5049055;28;19909;-82
2022/01/17 12:51:31;;;;;;;;;;;8.20;99.90;;;;;;5045603;28;20325;-81
2022/01/17 12:53:58;;;;;;;;;;;8.20;99.90;;;;;;5029201;28;19910;-81
2022/01/17 12:56:23;;;;;;;;;;;8.20;99.90;;;;;;5063079;28;19918;-81
2022/01/17 12:58:49;;;;;;;;;;;8.20;99.90;;;;;;5028824;28;19916;-81
2022/01/17 13:01:15;;;;;;;;;;;8.20;99.90;;;;;;5026519;28;19910;-82
2022/01/17 13:03:43;;;;;;;;;;;8.20;99.90;;;;;;5042520;28;19913;-81
2022/01/17 13:06:12;;;;;;;;;;;8.20;99.90;;;;;;5029171;28;19914;-81
2022/01/17 13:08:41;;;;;;;;;;;8.20;99.90;;;;;;5032134;28;19909;-81
2022/01/17 13:11:13;;;;;;;;;;;8.10;99.90;;;;;;5050543;28;19913;-81
2022/01/17 13:13:45;;;;;;;;;;;8.00;99.90;;;;;;5027810;28;19940;-82
2022/01/17 13:16:11;;;;;;;;;;;8.00;1.00;;;;;;5029881;28;19918;-82
2022/01/17 13:18:37;;;;;;;;;;;7.90;1.00;;;;;;5027496;28;19909;-82
2022/01/17 13:21:03;;;;;;;;;;;7.90;90.30;;;;;;5038833;28;19914;-82
2022/01/17 13:23:46;;;;;;;;;;;8.00;99.90;;;;;;5026349;28;19917;-81
2022/01/17 13:26:13;;;;;;;;;;;7.90;99.90;;;;;;5019640;28;19925;-81
2022/01/17 13:28:39;;;;;;;;;;;7.90;1.00;;;;;;5022697;28;20875;-81
2022/01/17 13:31:21;;;;;;;;;;;7.80;1.00;;;;;;5028854;28;19940;-81
2022/01/17 13:33:47;;;;;;;;;;;7.80;1.00;;;;;;5044846;28;19920;-81
2022/01/17 13:36:28;;;;;;;;;;;7.80;1.00;;;;;;5064595;28;19949;-81
2022/01/17 13:39:00;;;;;;;;;;;7.80;1.00;;;;;;5064068;28;19913;-81
2022/01/17 13:41:27;;;;;;;;;;;7.80;1.00;;;;;;5044898;28;21640;-81
2022/01/17 13:43:53;;;;;;;;;;;7.80;1.00;;;;;;5030653;28;19916;-81
2022/01/17 13:46:18;;;;;;;;;;;7.80;1.00;;;;;;5044450;28;19925;-81
2022/01/17 13:48:45;;;;;;;;;;;8.00;1.00;;;;;;5046066;28;19909;-81
2022/01/17 13:51:11;;;;;;;;;;;8.10;1.00;;;;;;5044448;28;19920;-82
2022/01/17 13:53:36;;;;;;;;;;;8.10;1.00;;;;;;5065686;28;19909;-81
2022/01/17 13:56:03;;;;;;;;;;;8.20;99.90;;;;;;5052483;28;19917;-81
2022/01/17 13:58:30;;;;;;;;;;;8.10;99.90;;;;;;5028151;28;19920;-81
2022/01/17 14:00:56;;;;;;;;;;;8.10;99.90;;;;;;5046202;28;19948;-81
2022/01/17 14:03:22;;;;;;;;;;;8.10;99.90;;;;;;5029015;28;19917;-81
2022/01/17 14:05:49;;;;;;;;;;;8.10;99.90;;;;;;5029900;28;19964;-80
2022/01/17 14:08:16;;;;;;;;;;;8.10;99.90;;;;;;5037960;28;19910;-81
2022/01/17 14:11:02;;;;;;;;;;;8.10;99.90;;;;;;5030606;28;19972;-81
2022/01/17 14:13:30;;;;;;;;;;;8.10;1.00;;;;;;5028924;28;19925;-81
2022/01/17 14:16:10;;;;;;;;;;;8.10;1.00;;;;;;5060753;28;19914;-81
2022/01/17 14:18:39;;;;;;;;;;;8.10;1.00;;;;;;5050971;28;19909;-81
2022/01/17 14:21:04;;;;;;;;;;;8.00;1.00;;;;;;5051973;28;19909;-81
2022/01/17 14:23:31;;;;;;;;;;;8.00;1.00;;;;;;5051919;28;19909;-81
2022/01/17 14:25:58;;;;;;;;;;;8.00;1.00;;;;;;5021055;28;20005;-81
2022/01/17 14:28:27;;;;;;;;;;;8.00;1.00;;;;;;5030682;28;19917;-81
2022/01/17 14:30:53;;;;;;;;;;;8.00;1.00;;;;;;5045853;28;19913;-81
2022/01/17 14:33:20;;;;;;;;;;;8.00;1.00;;;;;;5034708;28;19981;-81
2022/01/17 14:36:04;;;;;;;;;;;8.00;1.00;;;;;;5041046;28;19918;-81
2022/01/17 14:38:30;;;;;;;;;;;8.00;1.00;;;;;;5063979;28;19939;-81
2022/01/17 14:40:55;;;;;;;;;;;8.10;1.00;;;;;;5032307;28;19924;-81
2022/01/17 14:43:30;;;;;;;;;;;8.00;1.00;;;;;;5057748;28;19910;-82
2022/01/17 14:46:03;;;;;;;;;;;8.00;1.00;;;;;;5047019;28;19909;-81
2022/01/17 14:48:36;;;;;;;;;;;8.10;1.00;;;;;;5048151;28;19913;-81
2022/01/17 14:51:19;;;;;;;;;;;8.20;1.00;;;;;;5065541;28;19909;-82
2022/01/17 14:53:47;;;;;;;;;;;8.20;99.90;;;;;;5035268;28;19920;-80
2022/01/17 15:02:51;;;;;;;;;;;8.20;99.90;;;;;;5051516;28;19916;-81
2022/01/17 15:04:38;;;;;;;;;;;8.20;99.90;;;;;;5043747;28;19940;-81
2022/01/17 15:07:05;;;;;;;;;;;8.20;99.90;;;;;;5046433;28;19909;-82
2022/01/17 15:09:31;;;;;;;;;;;8.10;99.90;;;;;;5048525;28;19940;-82
2022/01/17 15:11:56;;;;;;;;;;;8.10;99.90;;;;;;5048432;28;19914;-82
2022/01/17 15:14:22;;;;;;;;;;;8.10;99.90;;;;;;5062222;28;19898;-81
2022/01/17 15:16:47;;;;;;;;;;;8.10;99.90;;;;;;5029455;28;19917;-81
2022/01/17 15:19:13;;;;;;;;;;;8.10;99.90;;;;;;5029297;28;19920;-80